sensor_id;sensor_type;location;lat;lon;timestamp;pressure;altitude;pressure_sealevel;temperature;humidity
7754;BME280;3921;42.266;23.122;2023-02-23T06:06:55;95639.31;;;5.45;64.42
7754;BME280;3921;42.266;23.122;2023-02-23T06:09:41;95649.25;;;5.44;63.69
7754;BME280;3921;42.266;23.122;2023-02-23T06:12:08;95645.72;;;5.32;64.32
7754;BME280;3921;42.266;23.122;2023-02-23T06:37:27;95126.28;;;2.17;65.95
7754;BME280;3921;42.266;23.122;2023-02-23T07:51:10;95106.13;;;3.93;67.43
7754;BME280;3921;42.266;23.122;2023-02-23T07:54:00;95407.34;;;5.95;68.13
7754;BME280;3921;42.266;23.122;2023-02-23T07:56:28;95103.78;;;4.04;67.45
7754;BME280;3921;42.266;23.122;2023-02-23T07:58:55;95128.81;;;4.18;67.47
7754;BME280;3921;42.266;23.122;2023-02-23T08:01:25;95124.75;;;4.23;67.52
7754;BME280;3921;42.266;23.122;2023-02-23T16:02:40;94953.44;;;11.17;48.94
7754;BME280;3921;42.266;23.122;2023-02-23T18:14:46;95518.16;;;12.27;62.24
7754;BME280;3921;42.266;23.122;2023-02-23T18:35:37;95088.75;;;9.26;62.51
7754;BME280;3921;42.266;23.122;2023-02-23T18:38:18;95042.97;;;8.99;63.06
7754;BME280;3921;42.266;23.122;2023-02-23T18:46:17;95123.91;;;9.17;64.16
7754;BME280;3921;42.266;23.122;2023-02-23T18:51:29;95428.59;;;11.28;64.73
7754;BME280;3921;42.266;23.122;2023-02-23T18:54:15;95364.47;;;10.84;64.19
7754;BME280;3921;42.266;23.122;2023-02-23T18:59:19;95091.44;;;8.97;64.32
7754;BME280;3921;42.266;23.122;2023-02-23T19:07:50;95076.59;;;8.65;65.98
7754;BME280;3921;42.266;23.122;2023-02-23T19:10:19;95464.84;;;11.04;66.82
7754;BME280;3921;42.266;23.122;2023-02-23T19:12:48;95188.19;;;9.22;66.71
7754;BME280;3921;42.266;23.122;2023-02-23T19:16:46;95125.81;;;8.66;66.46
7754;BME280;3921;42.266;23.122;2023-02-23T19:19:16;95297.44;;;9.75;66.73
7754;BME280;3921;42.266;23.122;2023-02-23T19:24:50;95480.00;;;10.95;66.36
7754;BME280;3921;42.266;23.122;2023-02-23T19:27:19;95612.88;;;11.54;67.28
7754;BME280;3921;42.266;23.122;2023-02-23T19:29:54;95606.09;;;11.58;66.66
7754;BME280;3921;42.266;23.122;2023-02-23T19:32:42;95105.06;;;8.33;67.06
7754;BME280;3921;42.266;23.122;2023-02-23T19:55:29;95156.03;;;8.11;69.06
7754;BME280;3921;42.266;23.122;2023-02-23T20:00:37;95174.31;;;8.30;69.67
7754;BME280;3921;42.266;23.122;2023-02-23T20:03:08;95143.53;;;8.03;69.44
7754;BME280;3921;42.266;23.122;2023-02-23T20:05:52;95138.53;;;7.94;69.47
7754;BME280;3921;42.266;23.122;2023-02-23T20:08:23;95673.50;;;11.13;70.25
7754;BME280;3921;42.266;23.122;2023-02-23T20:10:52;95512.16;;;10.37;69.96
7754;BME280;3921;42.266;23.122;2023-02-23T20:13:19;95649.19;;;11.10;70.46
7754;BME280;3921;42.266;23.122;2023-02-23T20:15:48;95519.72;;;10.31;69.91
7754;BME280;3921;42.266;23.122;2023-02-23T20:18:24;95196.91;;;8.14;69.92
7754;BME280;3921;42.266;23.122;2023-02-23T20:20:53;95646.75;;;10.97;70.94
7754;BME280;3921;42.266;23.122;2023-02-23T20:23:20;95544.88;;;10.25;71.46
7754;BME280;3921;42.266;23.122;2023-02-23T20:25:52;95151.06;;;7.76;71.01
7754;BME280;3921;42.266;23.122;2023-02-23T20:28:23;95186.88;;;7.85;71.12
7754;BME280;3921;42.266;23.122;2023-02-23T20:30:51;95326.22;;;8.72;70.86
7754;BME280;3921;42.266;23.122;2023-02-23T20:33:18;95151.88;;;7.70;70.91
7754;BME280;3921;42.266;23.122;2023-02-23T20:35:46;95668.59;;;10.87;71.36
7754;BME280;3921;42.266;23.122;2023-02-23T20:38:38;95503.13;;;9.94;70.70
7754;BME280;3921;42.266;23.122;2023-02-23T20:41:17;95175.22;;;7.80;70.89
7754;BME280;3921;42.266;23.122;2023-02-23T20:46:46;95377.94;;;8.91;71.80
7754;BME280;3921;42.266;23.122;2023-02-23T20:49:14;95392.16;;;8.89;71.38
7754;BME280;3921;42.266;23.122;2023-02-23T20:59:31;95493.16;;;9.66;72.72
7754;BME280;3921;42.266;23.122;2023-02-23T21:02:10;95156.88;;;7.50;72.33
7754;BME280;3921;42.266;23.122;2023-02-23T21:04:49;95240.25;;;8.12;71.88
7754;BME280;3921;42.266;23.122;2023-02-23T21:07:18;95305.34;;;8.48;72.25
7754;BME280;3921;42.266;23.122;2023-02-23T21:09:52;95324.53;;;8.59;72.24
7754;BME280;3921;42.266;23.122;2023-02-23T21:12:20;95671.16;;;10.66;72.74
7754;BME280;3921;42.266;23.122;2023-02-23T21:23:31;95156.06;;;7.47;72.52
7754;BME280;3921;42.266;23.122;2023-02-23T21:31:32;95161.03;;;7.56;72.96
7754;BME280;3921;42.266;23.122;2023-02-23T21:33:59;95136.88;;;7.42;72.80
7754;BME280;3921;42.266;23.122;2023-02-23T21:36:29;95392.13;;;8.98;72.25
7754;BME280;3921;42.266;23.122;2023-02-23T21:38:58;95313.69;;;8.28;72.80
7754;BME280;3921;42.266;23.122;2023-02-23T21:41:42;95538.25;;;9.91;72.65
7754;BME280;3921;42.266;23.122;2023-02-23T21:44:10;95159.34;;;7.38;72.86
7754;BME280;3921;42.266;23.122;2023-02-23T21:46:37;95531.59;;;9.79;72.72
7754;BME280;3921;42.266;23.122;2023-02-23T21:49:06;95144.38;;;7.23;72.71
7754;BME280;3921;42.266;23.122;2023-02-23T21:51:34;95151.88;;;7.36;72.69
7754;BME280;3921;42.266;23.122;2023-02-23T21:54:05;95106.00;;;7.05;72.56
7754;BME280;3921;42.266;23.122;2023-02-23T21:56:52;95092.69;;;7.03;72.32
7754;BME280;3921;42.266;23.122;2023-02-23T22:04:30;95436.38;;;9.16;72.69
7754;BME280;3921;42.266;23.122;2023-02-23T22:06:59;95111.03;;;7.14;71.95
